Time;durP1;ratioP1;P1;durP2;ratioP2;P2;SDS_P1;SDS_P2;PMS_P1;PMS_P2;Temp;Humidity;BMP_temperature;BMP_pressure;BME280_temperature;BME280_humidity;BME280_pressure;Samples;Min_cycle;Max_cycle;Signal;HPM_P1;HPM_P2
2021/08/15 00:01:22;;;;;;;15.80;8.07;;;;;;;17.98;81.74;101708.28;5091638;28;20078;-61
2021/08/15 00:03:49;;;;;;;12.63;8.45;;;;;;;17.98;81.73;101706.47;5096075;28;20082;-61
2021/08/15 00:06:16;;;;;;;22.92;14.63;;;;;;;18.00;81.99;101695.66;5096609;28;20051;-60
2021/08/15 00:08:46;;;;;;;32.72;18.67;;;;;;;18.17;81.03;101691.09;5096862;28;20138;-60
2021/08/15 00:11:13;;;;;;;25.42;15.23;;;;;;;18.14;81.21;101688.78;5073818;28;20094;-60
2021/08/15 00:13:39;;;;;;;19.30;11.43;;;;;;;18.30;80.59;101693.16;5094730;28;20482;-60
2021/08/15 00:16:06;;;;;;;18.00;10.60;;;;;;;18.34;80.50;101684.66;5094249;28;20059;-61
2021/08/15 00:18:32;;;;;;;21.05;8.98;;;;;;;18.45;78.63;101691.41;5091398;28;20503;-60
2021/08/15 00:20:59;;;;;;;16.52;9.30;;;;;;;18.35;80.33;101690.81;5097315;27;20140;-61
2021/08/15 00:23:25;;;;;;;19.05;9.05;;;;;;;18.37;80.59;101686.16;5088760;27;20132;-61
2021/08/15 00:25:51;;;;;;;18.42;8.85;;;;;;;18.45;79.84;101683.44;5090100;27;20139;-59
2021/08/15 00:28:18;;;;;;;16.67;8.40;;;;;;;18.13;81.62;101676.50;5106953;27;20075;-60
2021/08/15 00:30:45;;;;;;;14.68;9.10;;;;;;;18.06;81.79;101683.53;5090846;28;20163;-61
2021/08/15 00:33:11;;;;;;;14.38;8.15;;;;;;;17.94;81.81;101678.59;5100466;28;20087;-60
2021/08/15 00:35:38;;;;;;;17.92;9.50;;;;;;;17.90;82.74;101676.50;5086696;28;20130;-61
2021/08/15 00:38:04;;;;;;;17.60;9.52;;;;;;;18.17;81.50;101689.28;5084173;28;20127;-61
2021/08/15 00:40:31;;;;;;;15.68;8.10;;;;;;;18.06;81.86;101675.56;5095488;28;20159;-61
2021/08/15 00:42:57;;;;;;;14.43;7.53;;;;;;;18.10;81.66;101680.34;5096287;28;20573;-60
2021/08/15 00:45:24;;;;;;;15.80;8.43;;;;;;;18.14;81.29;101678.16;5097159;28;20086;-60
2021/08/15 00:47:50;;;;;;;14.73;8.20;;;;;;;18.34;80.83;101670.56;5092723;28;20898;-59
2021/08/15 00:50:19;;;;;;;22.48;10.68;;;;;;;18.47;80.17;101676.13;5072817;28;21209;-59
2021/08/15 00:52:45;;;;;;;20.20;11.80;;;;;;;18.66;78.85;101682.78;5088366;28;20075;-60
2021/08/15 00:55:12;;;;;;;17.35;11.02;;;;;;;18.46;79.49;101681.59;5098203;28;20358;-61
2021/08/15 00:57:43;;;;;;;20.23;9.30;;;;;;;18.61;79.32;101679.81;5092372;28;20054;-59
2021/08/15 01:00:12;;;;;;;15.38;9.18;;;;;;;18.45;80.51;101675.47;5099045;28;20047;-59
2021/08/15 01:02:40;;;;;;;17.35;8.93;;;;;;;18.48;80.42;101671.63;5097463;27;20436;-59
2021/08/15 01:05:08;;;;;;;18.27;8.93;;;;;;;18.50;80.24;101662.50;5093214;27;20054;-60
2021/08/15 01:07:35;;;;;;;16.20;9.18;;;;;;;18.36;80.42;101665.91;5095401;28;20105;-59
2021/08/15 01:10:01;;;;;;;15.63;9.02;;;;;;;18.13;82.06;101671.19;5089433;28;20079;-59
2021/08/15 01:12:28;;;;;;;16.25;8.65;;;;;;;18.31;81.64;101658.47;5087497;28;20058;-61
2021/08/15 01:14:56;;;;;;;16.83;9.35;;;;;;;18.09;82.75;101651.31;5092705;27;20132;-59
2021/08/15 01:17:24;;;;;;;19.83;9.20;;;;;;;18.28;82.38;101653.50;5090431;27;20056;-61
2021/08/15 01:19:53;;;;;;;16.58;8.73;;;;;;;18.63;80.70;101645.13;5094521;28;20522;-61
2021/08/15 01:22:20;;;;;;;20.98;9.02;;;;;;;18.74;79.61;101647.34;5090018;27;20087;-60
2021/08/15 01:24:49;;;;;;;17.17;8.70;;;;;;;18.41;81.04;101647.63;5098061;28;20135;-60
2021/08/15 01:27:25;;;;;;;17.35;8.45;;;;;;;18.42;81.96;101661.72;5091002;27;20500;-61
2021/08/15 01:29:51;;;;;;;17.50;8.75;;;;;;;18.51;81.71;101650.03;5098929;28;20126;-61
2021/08/15 01:32:18;;;;;;;14.15;8.48;;;;;;;18.44;81.44;101651.72;5082906;28;20471;-59
2021/08/15 01:34:44;;;;;;;16.70;9.02;;;;;;;18.20;82.81;101650.91;5095375;28;20155;-61
2021/08/15 01:37:11;;;;;;;17.02;8.93;;;;;;;18.00;83.63;101637.28;5090065;28;20132;-60
2021/08/15 01:39:39;;;;;;;17.75;8.70;;;;;;;18.52;81.35;101638.38;5089955;27;20052;-61
2021/08/15 01:42:06;;;;;;;15.27;8.60;;;;;;;18.57;80.02;101642.16;5096736;28;20147;-60
2021/08/15 01:44:32;;;;;;;19.30;8.80;;;;;;;18.52;80.50;101635.72;5090872;28;20146;-61
2021/08/15 01:46:59;;;;;;;18.25;9.25;;;;;;;18.62;80.07;101624.84;5074516;28;20832;-61
2021/08/15 01:49:25;;;;;;;16.45;9.25;;;;;;;18.35;80.32;101622.59;5066550;28;20130;-61
2021/08/15 01:51:52;;;;;;;20.52;10.27;;;;;;;18.41;79.86;101622.88;5099549;28;20049;-61
2021/08/15 01:54:18;;;;;;;18.05;8.93;;;;;;;18.44;80.86;101619.84;5086846;28;20075;-59
2021/08/15 01:56:44;;;;;;;18.95;9.18;;;;;;;17.98;82.59;101623.34;5096185;28;20157;-59
2021/08/15 01:59:11;;;;;;;16.02;9.45;;;;;;;17.81;83.61;101619.94;5092147;27;20109;-61
2021/08/15 02:01:37;;;;;;;18.35;10.48;;;;;;;17.82;84.10;101613.63;5087471;28;20135;-61
2021/08/15 02:04:04;;;;;;;20.52;9.45;;;;;;;17.98;84.27;101600.28;5096555;28;20051;-61
2021/08/15 02:06:31;;;;;;;17.88;9.73;;;;;;;18.12;82.16;101604.00;5090278;28;20231;-61
2021/08/15 02:08:58;;;;;;;21.17;12.70;;;;;;;17.78;83.58;101599.06;5097928;28;20494;-61
2021/08/15 02:11:25;;;;;;;22.00;12.30;;;;;;;17.94;83.51;101604.28;5089299;28;20754;-61
2021/08/15 02:13:51;;;;;;;20.60;11.48;;;;;;;17.83;83.67;101603.84;5088965;28;20079;-61
2021/08/15 02:16:17;;;;;;;16.70;9.32;;;;;;;17.70;84.71;101604.41;5090115;28;20562;-61
2021/08/15 02:18:44;;;;;;;15.80;9.52;;;;;;;17.45;86.36;101615.13;5083641;28;20078;-59
2021/08/15 02:21:11;;;;;;;18.33;9.07;;;;;;;17.34;87.08;101611.03;5099385;28;20406;-61
2021/08/15 02:23:37;;;;;;;18.73;9.48;;;;;;;17.56;86.36;101603.31;5084264;28;20498;-60
2021/08/15 02:26:04;;;;;;;20.08;10.25;;;;;;;17.45;86.53;101599.22;5092129;28;20083;-60
2021/08/15 02:28:30;;;;;;;17.02;9.13;;;;;;;17.33;86.63;101592.66;5083263;28;20086;-60
2021/08/15 02:30:57;;;;;;;18.38;10.15;;;;;;;17.26;87.02;101594.34;5088751;28;20052;-59
2021/08/15 02:33:24;;;;;;;19.08;9.50;;;;;;;17.54;86.36;101592.88;5087843;28;20496;-61
2021/08/15 02:35:50;;;;;;;19.35;9.75;;;;;;;17.46;85.47;101594.75;5094146;28;20087;-61
2021/08/15 02:38:16;;;;;;;15.52;8.95;;;;;;;17.33;86.72;101597.97;5098548;28;20069;-61
2021/08/15 02:40:43;;;;;;;19.50;10.18;;;;;;;17.69;84.46;101579.69;5085085;28;20156;-59
2021/08/15 02:43:09;;;;;;;20.33;9.15;;;;;;;17.40;85.82;101580.34;5083840;28;20130;-61
2021/08/15 02:45:36;;;;;;;17.30;9.40;;;;;;;17.26;86.92;101583.72;5089397;27;20110;-58
2021/08/15 02:48:03;;;;;;;17.48;9.52;;;;;;;17.23;87.47;101590.22;5096960;28;20080;-61
2021/08/15 02:50:29;;;;;;;17.40;8.65;;;;;;;17.32;86.90;101581.19;5095747;28;20519;-60
2021/08/15 02:52:56;;;;;;;19.65;8.98;;;;;;;17.28;86.90;101571.13;5087314;28;20055;-61
2021/08/15 02:55:22;;;;;;;17.55;9.48;;;;;;;17.48;85.94;101564.38;5094294;28;20079;-61
2021/08/15 02:57:49;;;;;;;20.05;8.30;;;;;;;18.19;82.78;101556.34;5079216;27;20848;-61
2021/08/15 03:00:16;;;;;;;19.35;9.15;;;;;;;17.51;84.33;101552.63;5093007;28;20044;-61
2021/08/15 03:02:42;;;;;;;17.88;9.02;;;;;;;17.35;85.46;101564.97;5081960;28;20079;-57
2021/08/15 03:05:10;;;;;;;19.35;8.98;;;;;;;17.21;87.22;101565.69;5095767;28;20414;-61
2021/08/15 03:07:37;;;;;;;15.95;8.90;;;;;;;17.39;86.74;101558.31;5091283;28;20206;-60
2021/08/15 03:10:07;;;;;;;16.58;9.23;;;;;;;17.40;86.63;101553.81;5088780;28;20154;-61
2021/08/15 03:12:34;;;;;;;17.85;9.10;;;;;;;17.17;87.37;101541.34;5088009;28;20104;-59
2021/08/15 03:15:00;;;;;;;18.40;9.50;;;;;;;17.13;87.65;101544.50;5090440;28;20146;-60
2021/08/15 03:17:27;;;;;;;18.25;9.23;;;;;;;17.07;88.21;101548.69;5093157;28;20052;-61
2021/08/15 03:19:53;;;;;;;15.50;8.70;;;;;;;17.17;87.65;101545.81;5073090;27;20104;-61
2021/08/15 03:22:20;;;;;;;18.85;9.55;;;;;;;17.10;87.60;101550.97;5099366;28;20050;-61
2021/08/15 03:24:46;;;;;;;18.48;9.90;;;;;;;17.16;86.95;101544.97;5081972;28;20694;-61
2021/08/15 03:27:13;;;;;;;17.10;9.05;;;;;;;17.07;87.48;101545.19;5101164;28;20156;-61
2021/08/15 03:29:39;;;;;;;15.20;9.43;;;;;;;17.04;88.08;101541.06;5095610;28;20168;-61
2021/08/15 03:32:06;;;;;;;16.77;8.88;;;;;;;16.96;88.56;101544.56;5085558;28;20127;-61
2021/08/15 03:34:32;;;;;;;15.73;9.35;;;;;;;16.91;89.68;101543.41;5094142;28;20067;-61
2021/08/15 03:36:59;;;;;;;17.95;9.45;;;;;;;16.88;89.69;101525.22;5076117;28;20138;-61
2021/08/15 03:39:29;;;;;;;20.70;9.77;;;;;;;16.83;88.78;101540.81;5093297;28;20138;-61
2021/08/15 03:41:59;;;;;;;18.00;9.35;;;;;;;16.76;89.47;101554.69;5082898;28;20078;-61
2021/08/15 03:44:30;;;;;;;16.08;8.45;;;;;;;16.74;90.45;101553.19;5094646;28;20847;-61
2021/08/15 03:46:57;;;;;;;16.42;10.30;;;;;;;16.67;91.08;101545.09;5099194;28;20134;-61
2021/08/15 03:49:25;;;;;;;17.33;9.32;;;;;;;16.68;91.01;101538.81;5087634;28;20526;-61
2021/08/15 03:51:51;;;;;;;16.50;10.05;;;;;;;16.72;91.35;101536.66;5096351;28;20130;-61
2021/08/15 03:54:21;;;;;;;19.67;9.32;;;;;;;16.76;89.75;101530.84;5087852;28;20744;-60
2021/08/15 03:56:48;;;;;;;17.17;9.05;;;;;;;17.03;89.70;101543.88;5087421;28;20071;-59
2021/08/15 03:59:16;;;;;;;18.88;9.38;;;;;;;16.86;89.66;101548.44;5087149;28;20146;-59
2021/08/15 04:01:43;;;;;;;20.27;10.00;;;;;;;16.80;89.96;101540.13;5092357;28;20056;-61
2021/08/15 04:04:10;;;;;;;18.60;9.50;;;;;;;16.88;90.17;101547.25;5090142;28;20120;-61
2021/08/15 04:06:36;;;;;;;19.08;9.07;;;;;;;16.87;89.61;101542.13;5086642;28;20114;-61
2021/08/15 04:09:03;;;;;;;20.38;9.88;;;;;;;16.92;88.81;101543.25;5097248;28;20453;-59
2021/08/15 04:11:30;;;;;;;18.52;10.30;;;;;;;16.91;88.37;101540.78;5086431;28;20139;-60
2021/08/15 04:13:56;;;;;;;19.80;9.02;;;;;;;16.79;88.88;101541.09;5090618;28;20075;-61
2021/08/15 04:16:23;;;;;;;15.73;8.68;;;;;;;16.81;89.45;101548.88;5084340;28;20118;-60
2021/08/15 04:18:49;;;;;;;17.02;9.15;;;;;;;17.49;85.79;101549.31;5075180;28;20130;-59
2021/08/15 04:21:16;;;;;;;17.92;9.30;;;;;;;17.36;85.53;101556.00;5093829;27;20135;-59
2021/08/15 04:23:42;;;;;;;20.33;10.05;;;;;;;17.45;86.90;101562.09;5090702;27;20047;-60
2021/08/15 04:26:09;;;;;;;16.83;8.50;;;;;;;16.94;88.06;101557.16;5079954;27;20134;-60
2021/08/15 04:28:35;;;;;;;15.77;9.15;;;;;;;17.17;88.14;101538.69;5090451;27;20164;-60
2021/08/15 04:31:01;;;;;;;20.95;8.85;;;;;;;17.40;85.75;101537.91;5103290;27;20524;-60
2021/08/15 04:33:28;;;;;;;15.45;9.07;;;;;;;17.45;86.08;101538.22;5088479;28;20059;-61
2021/08/15 04:35:54;;;;;;;19.30;9.80;;;;;;;17.06;87.76;101531.13;5090259;28;20748;-61
2021/08/15 04:38:22;;;;;;;17.98;9.65;;;;;;;16.98;88.14;101539.91;5092401;28;20138;-61
2021/08/15 04:40:50;;;;;;;23.05;10.32;;;;;;;16.92;89.50;101523.91;5099606;28;20147;-60
2021/08/15 04:43:20;;;;;;;17.45;8.68;;;;;;;17.57;87.04;101522.75;5096064;28;20081;-60
2021/08/15 04:45:47;;;;;;;17.58;9.10;;;;;;;18.15;82.77;101515.19;5087429;27;20143;-61
2021/08/15 04:48:16;;;;;;;16.60;9.00;;;;;;;18.57;80.64;101524.44;5097132;28;20138;-60
2021/08/15 04:50:43;;;;;;;18.45;9.25;;;;;;;17.58;84.76;101509.31;5082158;28;20070;-59
2021/08/15 04:53:11;;;;;;;16.33;9.07;;;;;;;17.95;85.47;101512.22;5095056;28;20051;-61
2021/08/15 04:55:38;;;;;;;20.15;9.80;;;;;;;17.77;85.05;101507.19;5088697;28;20156;-57
2021/08/15 04:58:05;;;;;;;17.58;9.38;;;;;;;17.38;87.39;101492.19;5098033;28;20140;-61
2021/08/15 05:00:31;;;;;;;20.15;9.63;;;;;;;18.37;81.84;101495.75;5088842;28;20148;-61
2021/08/15 05:02:58;;;;;;;20.92;10.10;;;;;;;17.92;84.17;101492.16;5089541;28;20646;-61
2021/08/15 05:05:25;;;;;;;19.95;10.32;;;;;;;17.56;86.09;101492.75;5090887;28;20660;-57
2021/08/15 05:07:51;;;;;;;26.35;12.93;;;;;;;18.10;85.35;101505.13;5080476;28;20049;-61
2021/08/15 05:10:19;;;;;;;31.10;14.50;;;;;;;17.60;85.96;101506.47;5100097;28;20051;-59
2021/08/15 05:12:45;;;;;;;25.67;14.00;;;;;;;17.59;87.47;101492.38;5089732;28;20139;-61
2021/08/15 05:15:12;;;;;;;28.63;15.48;;;;;;;17.73;84.90;101498.75;5097586;28;20144;-61
2021/08/15 05:17:39;;;;;;;33.25;15.35;;;;;;;17.54;86.18;101485.94;5093071;28;20523;-61
2021/08/15 05:20:06;;;;;;;28.25;15.23;;;;;;;17.49;87.02;101488.31;5095499;27;20143;-60
2021/08/15 05:22:33;;;;;;;30.52;16.83;;;;;;;17.47;87.42;101483.19;5088032;28;20558;-61
2021/08/15 05:25:00;;;;;;;34.90;18.10;;;;;;;18.06;84.84;101484.44;5091614;28;20796;-61
2021/08/15 05:27:26;;;;;;;29.45;17.73;;;;;;;17.65;87.05;101480.22;5096362;27;20071;-61
2021/08/15 05:29:53;;;;;;;34.50;18.83;;;;;;;17.90;86.42;101486.22;5093091;27;20068;-61
2021/08/15 05:32:20;;;;;;;33.25;19.98;;;;;;;17.66;86.89;101487.22;5092064;28;20048;-60
2021/08/15 05:34:46;;;;;;;37.13;20.05;;;;;;;17.61;86.87;101491.38;5095102;27;20137;-61
2021/08/15 05:37:13;;;;;;;35.03;18.77;;;;;;;18.34;83.52;101492.63;5097052;27;20135;-59
2021/08/15 05:39:39;;;;;;;34.17;20.10;;;;;;;17.84;84.76;101491.41;5107751;27;20133;-62
2021/08/15 05:42:06;;;;;;;37.17;19.23;;;;;;;17.75;86.28;101491.44;5089761;27;20075;-61
2021/08/15 05:44:32;;;;;;;40.10;19.35;;;;;;;17.74;86.81;101489.78;5097981;27;20648;-61
2021/08/15 05:47:00;;;;;;;34.97;20.67;;;;;;;17.74;86.29;101489.78;5087222;27;20062;-60
2021/08/15 05:49:27;;;;;;;34.75;19.77;;;;;;;17.72;85.90;101488.31;5097007;28;20128;-61
2021/08/15 05:51:53;;;;;;;40.08;21.27;;;;;;;17.70;86.38;101483.19;5086794;28;20160;-61
2021/08/15 05:54:20;;;;;;;39.22;21.08;;;;;;;17.81;85.62;101484.59;5092982;28;20569;-61
2021/08/15 05:56:46;;;;;;;39.95;22.70;;;;;;;18.14;85.54;101479.84;5093696;28;20495;-62
2021/08/15 05:59:13;;;;;;;38.08;22.48;;;;;;;18.78;81.24;101475.88;5096413;28;20074;-61
2021/08/15 06:01:39;;;;;;;50.38;23.73;;;;;;;18.36;82.33;101486.09;5087202;28;20544;-61
2021/08/15 06:04:06;;;;;;;44.05;24.05;;;;;;;18.10;83.75;101483.06;5084697;28;20058;-60
2021/08/15 06:06:33;;;;;;;41.42;22.98;;;;;;;17.96;84.76;101482.03;5089272;28;20083;-60
2021/08/15 06:08:59;;;;;;;45.53;24.17;;;;;;;18.33;84.07;101477.72;5095992;27;20162;-61
2021/08/15 06:11:26;;;;;;;46.15;23.95;;;;;;;18.19;84.58;101474.03;5094488;28;20079;-61
2021/08/15 06:13:53;;;;;;;46.72;24.98;;;;;;;18.69;83.62;101467.16;5102697;28;20075;-61
2021/08/15 06:16:20;;;;;;;44.97;23.92;;;;;;;18.78;81.54;101470.56;5083087;28;20256;-61
2021/08/15 06:18:46;;;;;;;47.00;24.15;;;;;;;18.45;83.64;101473.59;5099354;27;20162;-60
2021/08/15 06:21:13;;;;;;;47.33;25.45;;;;;;;18.43;83.32;101483.56;5090150;28;20135;-61
2021/08/15 06:23:39;;;;;;;42.63;23.30;;;;;;;18.76;81.68;101480.56;5092223;28;20135;-61
2021/08/15 06:26:06;;;;;;;46.22;25.15;;;;;;;19.44;78.96;101462.53;5081865;27;20476;-60
2021/08/15 06:28:32;;;;;;;46.08;25.30;;;;;;;19.87;76.44;101462.53;5090287;28;20143;-60
2021/08/15 06:31:18;;;;;;;41.47;24.60;;;;;;;19.45;78.66;101469.50;5083236;28;20052;-61
2021/08/15 06:33:45;;;;;;;43.10;24.77;;;;;;;19.79;76.56;101468.00;5089435;28;20055;-61
2021/08/15 06:36:11;;;;;;;44.42;24.60;;;;;;;19.04;80.96;101459.47;5086169;28;20070;-61
2021/08/15 06:38:38;;;;;;;43.78;24.80;;;;;;;19.92;77.88;101448.69;5093757;28;20083;-61
2021/08/15 06:41:04;;;;;;;44.38;24.48;;;;;;;20.19;76.21;101452.38;5095735;28;20168;-61
2021/08/15 06:43:31;;;;;;;44.00;24.92;;;;;;;19.62;79.43;101458.59;5089427;28;20071;-59
2021/08/15 06:45:58;;;;;;;41.40;22.90;;;;;;;19.83;78.78;101450.63;5088766;28;20060;-61
2021/08/15 06:48:24;;;;;;;45.03;23.55;;;;;;;19.66;78.35;101450.06;5087428;27;20392;-60
2021/08/15 06:50:53;;;;;;;45.78;21.52;;;;;;;19.46;78.23;101463.16;5089139;28;20519;-59
2021/08/15 06:53:21;;;;;;;39.15;22.52;;;;;;;19.09;81.11;101458.88;5100642;28;20098;-61
2021/08/15 06:55:48;;;;;;;44.88;23.67;;;;;;;19.12;81.24;101451.38;5064037;28;20083;-61
2021/08/15 06:58:15;;;;;;;48.28;23.23;;;;;;;19.87;78.08;101451.09;5091671;28;20467;-62
2021/08/15 07:00:42;;;;;;;39.03;23.15;;;;;;;20.30;74.50;101458.97;5087000;28;20048;-61
2021/08/15 07:03:09;;;;;;;40.08;22.77;;;;;;;20.60;73.48;101451.59;5093541;28;20054;-61
2021/08/15 07:05:37;;;;;;;40.40;22.17;;;;;;;20.85;72.39;101459.09;5082784;28;20090;-61
2021/08/15 07:08:04;;;;;;;40.85;23.00;;;;;;;20.99;71.88;101462.63;5092461;28;20589;-62
2021/08/15 07:10:31;;;;;;;46.53;21.90;;;;;;;21.07;71.05;101449.94;5089769;28;20568;-61
2021/08/15 07:12:58;;;;;;;37.33;20.15;;;;;;;21.11;70.51;101445.00;5085941;28;20066;-62
2021/08/15 07:15:28;;;;;;;39.85;22.30;;;;;;;21.16;70.25;101447.09;5097259;28;20480;-61
2021/08/15 07:17:55;;;;;;;43.28;22.15;;;;;;;20.61;72.71;101450.56;5087243;28;20473;-61
2021/08/15 07:20:23;;;;;;;44.38;24.17;;;;;;;20.24;74.90;101444.59;5088469;28;20131;-61
2021/08/15 07:22:49;;;;;;;44.08;22.10;;;;;;;20.62;74.29;101436.25;5089272;28;20147;-61
2021/08/15 07:25:16;;;;;;;42.65;23.42;;;;;;;20.93;72.91;101441.09;5085363;28;20082;-61
2021/08/15 07:27:43;;;;;;;48.30;21.85;;;;;;;20.51;74.19;101437.56;5090146;28;20051;-62
2021/08/15 07:30:11;;;;;;;43.92;21.02;;;;;;;20.57;73.50;101433.31;5080017;28;20086;-62
2021/08/15 07:32:50;;;;;;;37.25;19.48;;;;;;;20.54;72.59;101437.19;5090730;28;20150;-61
2021/08/15 07:35:18;;;;;;;38.55;19.48;;;;;;;20.08;73.93;101440.38;5080356;28;20614;-61
2021/08/15 07:37:45;;;;;;;39.13;18.60;;;;;;;20.38;74.41;101442.00;5091323;28;20135;-60
2021/08/15 07:40:12;;;;;;;41.45;18.33;;;;;;;20.98;70.62;101434.31;5078377;28;20093;-61
2021/08/15 07:42:38;;;;;;;39.95;18.23;;;;;;;21.29;68.15;101429.28;5089287;28;20083;-61
2021/08/15 07:45:05;;;;;;;31.38;15.10;;;;;;;20.80;67.70;101434.88;5078321;28;20608;-58
2021/08/15 07:47:32;;;;;;;34.72;15.35;;;;;;;20.34;69.47;101426.41;5087754;28;20455;-61
2021/08/15 07:49:58;;;;;;;25.95;12.20;;;;;;;20.27;69.89;101420.25;5083676;28;20079;-61
2021/08/15 07:52:25;;;;;;;29.15;12.73;;;;;;;20.27;70.49;101422.09;5062817;28;20758;-61
2021/08/15 07:54:51;;;;;;;28.58;12.20;;;;;;;20.71;67.62;101421.69;5095701;28;20083;-61
2021/08/15 07:57:20;;;;;;;27.92;11.55;;;;;;;21.02;64.67;101420.38;5088673;27;20555;-59
2021/08/15 07:59:47;;;;;;;29.05;10.70;;;;;;;20.65;65.80;101430.50;5093367;28;20145;-60
2021/08/15 08:02:13;;;;;;;22.35;9.80;;;;;;;20.73;63.10;101422.31;5089125;28;20160;-61
2021/08/15 08:04:40;;;;;;;26.85;10.32;;;;;;;20.69;63.11;101417.59;5097937;28;20052;-61
2021/08/15 08:07:06;;;;;;;25.67;10.13;;;;;;;20.58;63.90;101418.13;5092682;28;20125;-61
2021/08/15 08:09:34;;;;;;;18.08;8.65;;;;;;;20.61;62.18;101413.25;5094792;28;20078;-62
2021/08/15 08:12:01;;;;;;;24.13;9.43;;;;;;;21.05;61.49;101413.81;5093774;28;20055;-61
2021/08/15 08:14:28;;;;;;;21.63;8.73;;;;;;;21.86;60.64;101405.72;5084554;28;20100;-61
2021/08/15 08:16:54;;;;;;;22.23;10.10;;;;;;;21.50;59.64;101419.47;5097035;28;20430;-62
2021/08/15 08:19:21;;;;;;;17.48;8.45;;;;;;;21.40;62.96;101413.69;5091989;28;20162;-62
2021/08/15 08:21:47;;;;;;;23.33;9.07;;;;;;;21.49;63.70;101415.16;5089915;28;20146;-62
2021/08/15 08:24:15;;;;;;;20.20;8.07;;;;;;;21.71;61.66;101413.91;5089624;28;20146;-62
2021/08/15 08:26:41;;;;;;;20.48;8.52;;;;;;;21.78;62.18;101413.94;5088742;27;20131;-61
2021/08/15 08:29:07;;;;;;;17.67;8.20;;;;;;;22.51;58.36;101407.63;5102861;28;20138;-61
2021/08/15 08:31:34;;;;;;;25.67;9.40;;;;;;;22.02;60.40;101406.31;5084445;28;20074;-61
2021/08/15 08:34:01;;;;;;;19.70;9.38;;;;;;;22.27;60.11;101414.50;5087105;28;20047;-61
2021/08/15 08:36:27;;;;;;;18.42;9.05;;;;;;;21.97;61.37;101417.59;5077015;28;20240;-61
2021/08/15 08:38:54;;;;;;;18.38;8.30;;;;;;;23.06;58.12;101415.22;5091708;28;20140;-62
2021/08/15 08:41:20;;;;;;;19.25;7.75;;;;;;;22.54;60.13;101415.22;5083963;28;20916;-62
2021/08/15 08:43:48;;;;;;;24.00;8.38;;;;;;;23.56;57.28;101414.47;5094208;28;20044;-59
2021/08/15 08:46:17;;;;;;;20.00;7.50;;;;;;;24.07;55.56;101416.91;5095410;28;20052;-61
2021/08/15 08:48:44;;;;;;;21.23;7.72;;;;;;;23.95;54.57;101407.94;5088871;28;20052;-62
2021/08/15 08:51:11;;;;;;;23.17;7.97;;;;;;;23.25;57.58;101408.13;5086985;28;20138;-61
2021/08/15 08:53:38;;;;;;;22.95;7.18;;;;;;;23.66;55.74;101412.94;5090048;28;20488;-62
2021/08/15 08:56:05;;;;;;;18.85;7.30;;;;;;;24.54;54.89;101413.75;5096286;27;20133;-62
2021/08/15 08:58:31;;;;;;;18.42;8.05;;;;;;;24.03;54.91;101412.22;5090894;28;20811;-62
2021/08/15 09:01:01;;;;;;;23.17;8.32;;;;;;;23.65;55.66;101402.44;5092771;28;20052;-62
2021/08/15 09:03:27;;;;;;;20.88;8.75;;;;;;;23.28;57.54;101407.66;5088544;28;20051;-60
2021/08/15 09:05:55;;;;;;;21.95;9.15;;;;;;;23.04;58.27;101406.59;5081266;27;20078;-61
2021/08/15 09:08:31;;;;;;;23.42;9.30;;;;;;;23.67;56.52;101406.53;5095740;28;20540;-60
2021/08/15 09:11:19;;;;;;;24.73;9.75;;;;;;;23.05;58.61;101409.06;5087196;28;20112;-61
2021/08/15 09:14:03;;;;;;;25.90;10.60;;;;;;;22.96;59.63;101404.16;5091733;28;20040;-60
2021/08/15 09:17:03;;;;;;;22.08;10.68;;;;;;;23.05;59.53;101398.34;5083765;28;20135;-62
2021/08/15 09:19:34;;;;;;;26.98;9.93;;;;;;;23.53;59.23;101399.66;5099720;27;20063;-61
2021/08/15 09:22:21;;;;;;;22.85;11.02;;;;;;;23.79;58.57;101398.63;5086883;27;20052;-62
2021/08/15 09:24:52;;;;;;;22.98;11.05;;;;;;;24.02;57.63;101398.00;5091654;28;20076;-62
2021/08/15 09:27:21;;;;;;;20.85;10.30;;;;;;;23.94;57.18;101392.94;5090367;27;20109;-62
2021/08/15 09:30:07;;;;;;;23.13;11.45;;;;;;;24.20;56.85;101397.19;5093209;28;20155;-62
2021/08/15 09:32:34;;;;;;;23.50;9.80;;;;;;;24.40;56.24;101396.13;5087313;28;20132;-62
2021/08/15 09:35:03;;;;;;;26.27;10.82;;;;;;;24.64;55.85;101397.94;5097852;27;20524;-62
2021/08/15 09:37:33;;;;;;;;;;;;;;;24.56;54.52;101389.38;5098767;27;20148;-61
2021/08/15 09:40:01;;;;;;;18.77;8.65;;;;;;;25.02;54.09;101385.25;5091096;27;19978;-61
2021/08/15 09:42:41;;;;;;;20.67;9.15;;;;;;;25.20;54.92;101387.84;5073632;28;20079;-62
2021/08/15 09:45:16;;;;;;;20.20;7.22;;;;;;;24.82;51.73;101385.53;5079985;28;20075;-62
2021/08/15 09:47:43;;;;;;;15.25;6.15;;;;;;;25.31;51.91;101372.84;5093228;28;20478;-62
2021/08/15 09:50:19;;;;;;;15.82;6.05;;;;;;;25.66;48.42;101372.06;5088249;28;20134;-62
2021/08/15 09:52:46;;;;;;;15.30;6.38;;;;;;;25.47;49.69;101370.53;5098110;28;20480;-62
2021/08/15 09:55:13;;;;;;;14.05;5.18;;;;;;;26.27;46.93;101375.28;5100132;27;20597;-62
2021/08/15 09:57:40;;;;;;;12.52;5.43;;;;;;;26.18;46.07;101372.16;5087849;28;20142;-62
2021/08/15 10:00:26;;;;;;;14.18;6.03;;;;;;;26.68;46.76;101362.66;5087443;27;20076;-62
2021/08/15 10:02:53;;;;;;;13.75;5.95;;;;;;;26.67;45.96;101368.28;5090500;28;20155;-61
2021/08/15 10:05:20;;;;;;;13.87;5.80;;;;;;;26.50;45.96;101365.50;5091315;28;20044;-61
2021/08/15 10:07:47;;;;;;;14.20;5.90;;;;;;;26.52;46.15;101358.00;5093481;27;20367;-61
2021/08/15 10:10:17;;;;;;;15.82;6.30;;;;;;;26.56;45.66;101356.47;5093720;28;20138;-62
2021/08/15 10:12:43;;;;;;;15.05;5.75;;;;;;;26.55;45.90;101357.53;5082802;28;20059;-61
2021/08/15 10:15:11;;;;;;;14.02;5.50;;;;;;;26.33;45.86;101346.63;5089024;28;20171;-62
2021/08/15 10:17:39;;;;;;;11.20;4.68;;;;;;;26.58;44.05;101347.16;5098352;27;20055;-62
2021/08/15 10:20:09;;;;;;;9.70;4.50;;;;;;;26.70;43.81;101341.72;5069800;28;20097;-62
2021/08/15 10:22:39;;;;;;;10.43;4.30;;;;;;;27.22;45.27;101341.50;5092826;28;20107;-63
2021/08/15 10:25:08;;;;;;;11.40;4.50;;;;;;;27.34;43.77;101340.63;5088568;28;20146;-62
2021/08/15 10:27:40;;;;;;;8.90;4.15;;;;;;;27.82;45.12;101333.78;5087416;27;20451;-62
2021/08/15 10:30:13;;;;;;;10.88;3.97;;;;;;;27.90;41.10;101329.88;5083475;28;20067;-62
2021/08/15 10:32:54;;;;;;;7.72;3.33;;;;;;;27.78;40.41;101325.38;5102667;27;20126;-62
2021/08/15 10:35:25;;;;;;;8.40;3.40;;;;;;;27.69;41.52;101324.16;5086340;28;20047;-62
2021/08/15 10:38:12;;;;;;;8.68;3.90;;;;;;;27.40;40.45;101326.19;5096583;28;20051;-61
2021/08/15 10:40:39;;;;;;;8.88;4.35;;;;;;;27.39;41.16;101322.69;5069396;28;20154;-61
2021/08/15 10:43:34;;;;;;;8.32;4.07;;;;;;;27.57;41.54;101323.47;5088797;28;20849;-62
2021/08/15 10:46:18;;;;;;;8.05;3.65;;;;;;;27.80;42.37;101317.06;5082982;28;20549;-62
2021/08/15 10:48:59;;;;;;;12.60;4.18;;;;;;;27.95;42.51;101322.69;5098698;28;20043;-61
2021/08/15 10:51:45;;;;;;;10.20;3.92;;;;;;;27.78;41.78;101319.19;5092892;28;20110;-62
2021/08/15 10:54:28;;;;;;;8.95;4.05;;;;;;;27.83;42.04;101316.53;5088366;27;20063;-62
2021/08/15 10:57:04;;;;;;;10.18;3.92;;;;;;;28.04;42.62;101306.06;5089029;28;20351;-62
2021/08/15 10:59:39;;;;;;;9.63;4.25;;;;;;;28.15;42.78;101303.22;5081210;28;20597;-62
2021/08/15 11:02:17;;;;;;;10.70;4.07;;;;;;;28.22;42.22;101294.91;5092959;28;20078;-62
2021/08/15 11:04:56;;;;;;;9.52;3.80;;;;;;;28.19;41.54;101303.53;5087121;27;20122;-62
2021/08/15 11:07:37;;;;;;;9.48;3.90;;;;;;;27.99;41.08;101309.47;5088127;28;20136;-62
2021/08/15 11:10:06;;;;;;;14.80;3.70;;;;;;;28.10;41.76;101297.75;5081894;28;20142;-62
2021/08/15 11:12:33;;;;;;;8.50;3.45;;;;;;;28.09;41.70;101290.75;5095752;28;20080;-62
2021/08/15 11:15:02;;;;;;;11.18;4.22;;;;;;;28.36;40.94;101300.72;5082116;28;20074;-61
2021/08/15 11:17:31;;;;;;;9.63;3.72;;;;;;;28.58;40.89;101292.63;5099627;28;20489;-62
2021/08/15 11:20:31;;;;;;;7.93;3.60;;;;;;;28.32;41.72;101294.22;5092466;28;20087;-62